sensor_id;sensor_type;location;lat;lon;timestamp;pressure;altitude;pressure_sealevel;temperature;humidity
78890;BME280;68279;48.964;14.502;2024-03-07T00:00:34;97491.69;;;1.36;99.78
78890;BME280;68279;48.964;14.502;2024-03-07T00:02:59;97489.84;;;1.36;100.00
78890;BME280;68279;48.964;14.502;2024-03-07T00:05:26;97494.91;;;1.38;99.93
78890;BME280;68279;48.964;14.502;2024-03-07T00:07:52;97493.06;;;1.38;100.00
78890;BME280;68279;48.964;14.502;2024-03-07T00:10:18;97493.66;;;1.40;99.71
78890;BME280;68279;48.964;14.502;2024-03-07T00:12:44;97491.03;;;1.40;99.18
78890;BME280;68279;48.964;14.502;2024-03-07T00:15:11;97488.22;;;1.35;100.00
78890;BME280;68279;48.964;14.502;2024-03-07T00:17:39;97492.69;;;1.35;100.00
78890;BME280;68279;48.964;14.502;2024-03-07T00:20:05;97490.31;;;1.27;99.97
78890;BME280;68279;48.964;14.502;2024-03-07T00:22:35;97493.16;;;1.19;100.00
78890;BME280;68279;48.964;14.502;2024-03-07T00:25:02;97491.13;;;1.21;100.00
78890;BME280;68279;48.964;14.502;2024-03-07T00:27:30;97490.34;;;1.13;100.00
78890;BME280;68279;48.964;14.502;2024-03-07T00:29:55;97494.00;;;1.12;100.00
78890;BME280;68279;48.964;14.502;2024-03-07T00:32:23;97483.44;;;1.12;100.00
78890;BME280;68279;48.964;14.502;2024-03-07T00:34:49;97487.13;;;1.11;100.00
78890;BME280;68279;48.964;14.502;2024-03-07T00:37:16;97487.94;;;1.05;100.00
78890;BME280;68279;48.964;14.502;2024-03-07T00:39:42;97487.56;;;0.95;100.00
78890;BME280;68279;48.964;14.502;2024-03-07T00:42:08;97489.41;;;0.88;100.00
78890;BME280;68279;48.964;14.502;2024-03-07T00:44:34;97488.22;;;0.84;100.00
78890;BME280;68279;48.964;14.502;2024-03-07T00:47:02;97481.56;;;0.75;100.00
78890;BME280;68279;48.964;14.502;2024-03-07T00:49:29;97482.78;;;0.72;100.00
78890;BME280;68279;48.964;14.502;2024-03-07T00:51:56;97474.25;;;0.70;100.00
78890;BME280;68279;48.964;14.502;2024-03-07T00:54:22;97479.16;;;0.67;100.00
78890;BME280;68279;48.964;14.502;2024-03-07T00:56:48;97480.97;;;0.66;100.00
78890;BME280;68279;48.964;14.502;2024-03-07T00:59:16;97479.56;;;0.64;100.00
78890;BME280;68279;48.964;14.502;2024-03-07T01:01:42;97482.59;;;0.67;100.00
78890;BME280;68279;48.964;14.502;2024-03-07T01:04:08;97474.31;;;0.64;100.00
78890;BME280;68279;48.964;14.502;2024-03-07T01:06:34;97465.78;;;0.62;100.00
78890;BME280;68279;48.964;14.502;2024-03-07T01:09:02;97468.41;;;0.62;100.00
78890;BME280;68279;48.964;14.502;2024-03-07T01:11:28;97464.16;;;0.61;100.00
78890;BME280;68279;48.964;14.502;2024-03-07T01:13:54;97469.44;;;0.61;100.00
78890;BME280;68279;48.964;14.502;2024-03-07T01:16:21;97464.78;;;0.56;100.00
78890;BME280;68279;48.964;14.502;2024-03-07T01:18:47;97466.19;;;0.59;100.00
78890;BME280;68279;48.964;14.502;2024-03-07T01:21:12;97470.66;;;0.58;100.00
78890;BME280;68279;48.964;14.502;2024-03-07T01:23:38;97465.41;;;0.51;100.00
78890;BME280;68279;48.964;14.502;2024-03-07T01:26:04;97467.44;;;0.56;100.00
78890;BME280;68279;48.964;14.502;2024-03-07T01:28:29;97465.59;;;0.50;100.00
78890;BME280;68279;48.964;14.502;2024-03-07T01:30:57;97460.94;;;0.52;100.00
78890;BME280;68279;48.964;14.502;2024-03-07T01:33:24;97459.31;;;0.51;100.00
78890;BME280;68279;48.964;14.502;2024-03-07T01:35:50;97462.97;;;0.50;100.00
78890;BME280;68279;48.964;14.502;2024-03-07T01:38:15;97462.16;;;0.49;100.00
78890;BME280;68279;48.964;14.502;2024-03-07T01:40:42;97467.81;;;0.53;100.00
78890;BME280;68279;48.964;14.502;2024-03-07T01:43:08;97461.75;;;0.52;100.00
78890;BME280;68279;48.964;14.502;2024-03-07T01:45:34;97453.47;;;0.49;100.00
78890;BME280;68279;48.964;14.502;2024-03-07T01:48:08;97464.19;;;0.47;100.00
78890;BME280;68279;48.964;14.502;2024-03-07T01:50:35;97456.09;;;0.49;100.00
78890;BME280;68279;48.964;14.502;2024-03-07T01:53:03;97460.78;;;0.40;100.00
78890;BME280;68279;48.964;14.502;2024-03-07T01:55:30;97456.94;;;0.36;100.00
78890;BME280;68279;48.964;14.502;2024-03-07T01:57:58;97452.69;;;0.28;100.00
78890;BME280;68279;48.964;14.502;2024-03-07T02:00:24;97455.94;;;0.31;100.00
78890;BME280;68279;48.964;14.502;2024-03-07T02:02:51;97450.06;;;0.28;100.00
78890;BME280;68279;48.964;14.502;2024-03-07T02:05:17;97441.75;;;0.32;100.00
78890;BME280;68279;48.964;14.502;2024-03-07T02:07:43;97442.19;;;0.28;100.00
78890;BME280;68279;48.964;14.502;2024-03-07T02:10:09;97442.56;;;0.32;100.00
78890;BME280;68279;48.964;14.502;2024-03-07T02:12:34;97439.13;;;0.25;100.00
78890;BME280;68279;48.964;14.502;2024-03-07T02:15:00;97437.94;;;0.21;100.00
78890;BME280;68279;48.964;14.502;2024-03-07T02:17:26;97436.53;;;0.12;100.00
78890;BME280;68279;48.964;14.502;2024-03-07T02:19:52;97435.72;;;0.11;100.00
78890;BME280;68279;48.964;14.502;2024-03-07T02:22:19;97447.25;;;0.10;100.00
78890;BME280;68279;48.964;14.502;2024-03-07T02:24:44;97438.94;;;0.13;100.00
78890;BME280;68279;48.964;14.502;2024-03-07T02:27:11;97436.31;;;0.13;100.00
78890;BME280;68279;48.964;14.502;2024-03-07T02:29:36;97430.47;;;0.11;100.00
78890;BME280;68279;48.964;14.502;2024-03-07T02:32:02;97432.06;;;0.12;100.00
78890;BME280;68279;48.964;14.502;2024-03-07T02:34:29;97435.50;;;0.13;100.00
78890;BME280;68279;48.964;14.502;2024-03-07T02:36:55;97432.47;;;0.16;100.00
78890;BME280;68279;48.964;14.502;2024-03-07T02:39:20;97428.81;;;0.17;100.00
78890;BME280;68279;48.964;14.502;2024-03-07T02:41:46;97429.44;;;0.19;100.00
78890;BME280;68279;48.964;14.502;2024-03-07T02:44:13;97435.91;;;0.23;100.00
78890;BME280;68279;48.964;14.502;2024-03-07T02:46:40;97432.03;;;0.25;100.00
78890;BME280;68279;48.964;14.502;2024-03-07T02:49:05;97433.09;;;0.18;100.00
78890;BME280;68279;48.964;14.502;2024-03-07T02:51:31;97424.78;;;0.14;100.00
78890;BME280;68279;48.964;14.502;2024-03-07T02:53:57;97426.19;;;0.17;100.00
78890;BME280;68279;48.964;14.502;2024-03-07T02:56:23;97426.59;;;0.14;100.00
78890;BME280;68279;48.964;14.502;2024-03-07T02:58:48;97427.03;;;0.11;100.00
78890;BME280;68279;48.964;14.502;2024-03-07T03:01:14;97425.19;;;0.11;100.00
78890;BME280;68279;48.964;14.502;2024-03-07T03:03:40;97427.63;;;0.13;100.00
78890;BME280;68279;48.964;14.502;2024-03-07T03:06:08;97423.97;;;0.14;100.00
78890;BME280;68279;48.964;14.502;2024-03-07T03:08:34;97431.06;;;0.13;100.00
78890;BME280;68279;48.964;14.502;2024-03-07T03:11:00;97431.06;;;0.13;100.00
78890;BME280;68279;48.964;14.502;2024-03-07T03:13:26;97422.38;;;0.13;100.00
78890;BME280;68279;48.964;14.502;2024-03-07T03:15:53;97427.63;;;0.13;100.00
78890;BME280;68279;48.964;14.502;2024-03-07T03:18:21;97425.38;;;0.16;100.00
78890;BME280;68279;48.964;14.502;2024-03-07T03:20:47;97425.38;;;0.16;100.00
78890;BME280;68279;48.964;14.502;2024-03-07T03:23:14;97426.00;;;0.12;100.00
78890;BME280;68279;48.964;14.502;2024-03-07T03:25:40;97434.28;;;0.09;100.00
78890;BME280;68279;48.964;14.502;2024-03-07T03:28:06;97435.72;;;0.11;100.00
78890;BME280;68279;48.964;14.502;2024-03-07T03:30:40;97428.22;;;0.08;100.00
78890;BME280;68279;48.964;14.502;2024-03-07T03:33:08;97437.13;;;0.14;100.00
78890;BME280;68279;48.964;14.502;2024-03-07T03:35:36;97437.53;;;0.11;100.00
78890;BME280;68279;48.964;14.502;2024-03-07T03:38:02;97433.28;;;0.10;100.00
78890;BME280;68279;48.964;14.502;2024-03-07T03:40:27;97431.06;;;0.07;100.00
78890;BME280;68279;48.964;14.502;2024-03-07T03:42:53;97427.03;;;0.11;100.00
78890;BME280;68279;48.964;14.502;2024-03-07T03:45:19;97427.41;;;0.14;100.00
78890;BME280;68279;48.964;14.502;2024-03-07T03:47:45;97426.00;;;0.18;100.00
78890;BME280;68279;48.964;14.502;2024-03-07T03:50:12;97426.19;;;0.23;100.00
78890;BME280;68279;48.964;14.502;2024-03-07T03:52:39;97421.56;;;0.19;100.00
78890;BME280;68279;48.964;14.502;2024-03-07T03:55:05;97420.31;;;0.21;100.00
78890;BME280;68279;48.964;14.502;2024-03-07T03:57:41;97424.19;;;0.19;100.00
78890;BME280;68279;48.964;14.502;2024-03-07T04:00:08;97415.66;;;0.17;100.00
78890;BME280;68279;48.964;14.502;2024-03-07T04:02:43;97423.34;;;0.25;100.00
78890;BME280;68279;48.964;14.502;2024-03-07T04:05:10;97419.53;;;0.21;100.00
78890;BME280;68279;48.964;14.502;2024-03-07T04:07:37;97415.06;;;0.21;100.00
78890;BME280;68279;48.964;14.502;2024-03-07T04:10:03;97407.19;;;0.21;100.00
78890;BME280;68279;48.964;14.502;2024-03-07T04:12:33;97416.47;;;0.24;100.00
78890;BME280;68279;48.964;14.502;2024-03-07T04:14:59;97411.00;;;0.25;100.00
78890;BME280;68279;48.964;14.502;2024-03-07T04:17:24;97411.81;;;0.26;100.00
78890;BME280;68279;48.964;14.502;2024-03-07T04:19:50;97417.88;;;0.33;100.00
78890;BME280;68279;48.964;14.502;2024-03-07T04:22:16;97405.75;;;0.32;100.00
78890;BME280;68279;48.964;14.502;2024-03-07T04:24:45;97401.28;;;0.33;100.00
78890;BME280;68279;48.964;14.502;2024-03-07T04:27:11;97403.53;;;0.36;100.00
78890;BME280;68279;48.964;14.502;2024-03-07T04:29:36;97409.78;;;0.35;100.00
78890;BME280;68279;48.964;14.502;2024-03-07T04:32:03;97409.59;;;0.36;100.00
78890;BME280;68279;48.964;14.502;2024-03-07T04:34:30;97409.59;;;0.36;100.00
78890;BME280;68279;48.964;14.502;2024-03-07T04:37:00;97409.16;;;0.39;100.00
78890;BME280;68279;48.964;14.502;2024-03-07T04:39:29;97412.81;;;0.38;100.00
78890;BME280;68279;48.964;14.502;2024-03-07T04:42:02;97413.84;;;0.37;100.00
78890;BME280;68279;48.964;14.502;2024-03-07T04:44:29;97413.63;;;0.39;100.00
78890;BME280;68279;48.964;14.502;2024-03-07T04:46:55;97420.13;;;0.36;100.00
78890;BME280;68279;48.964;14.502;2024-03-07T04:49:23;97414.44;;;0.39;100.00
78890;BME280;68279;48.964;14.502;2024-03-07T04:51:59;97416.25;;;0.45;100.00
78890;BME280;68279;48.964;14.502;2024-03-07T04:54:26;97410.19;;;0.45;100.00
78890;BME280;68279;48.964;14.502;2024-03-07T04:56:52;97413.00;;;0.43;100.00
78890;BME280;68279;48.964;14.502;2024-03-07T04:59:19;97411.16;;;0.44;100.00
78890;BME280;68279;48.964;14.502;2024-03-07T05:01:46;97413.63;;;0.45;100.00
78890;BME280;68279;48.964;14.502;2024-03-07T05:04:13;97412.00;;;0.44;100.00
78890;BME280;68279;48.964;14.502;2024-03-07T05:06:39;97415.44;;;0.45;100.00
78890;BME280;68279;48.964;14.502;2024-03-07T05:09:07;97415.81;;;0.48;100.00
78890;BME280;68279;48.964;14.502;2024-03-07T05:11:34;97417.44;;;0.49;100.00
78890;BME280;68279;48.964;14.502;2024-03-07T05:14:00;97413.41;;;0.53;100.00
78890;BME280;68279;48.964;14.502;2024-03-07T05:16:30;97408.94;;;0.54;100.00
78890;BME280;68279;48.964;14.502;2024-03-07T05:18:57;97414.59;;;0.57;100.00
78890;BME280;68279;48.964;14.502;2024-03-07T05:21:26;97418.22;;;0.56;100.00
78890;BME280;68279;48.964;14.502;2024-03-07T05:23:58;97416.78;;;0.61;100.00
78890;BME280;68279;48.964;14.502;2024-03-07T05:26:24;97414.16;;;0.61;100.00
78890;BME280;68279;48.964;14.502;2024-03-07T05:28:51;97428.75;;;0.63;100.00
78890;BME280;68279;48.964;14.502;2024-03-07T05:31:17;97421.25;;;0.67;100.00
78890;BME280;68279;48.964;14.502;2024-03-07T05:33:45;97423.66;;;0.68;100.00
78890;BME280;68279;48.964;14.502;2024-03-07T05:36:11;97421.03;;;0.68;100.00
78890;BME280;68279;48.964;14.502;2024-03-07T05:38:43;97424.88;;;0.72;100.00
78890;BME280;68279;48.964;14.502;2024-03-07T05:41:12;97421.59;;;0.77;100.00
78890;BME280;68279;48.964;14.502;2024-03-07T05:43:41;97420.41;;;0.73;100.00
78890;BME280;68279;48.964;14.502;2024-03-07T05:46:06;97419.19;;;0.75;100.00
78890;BME280;68279;48.964;14.502;2024-03-07T05:48:33;97416.53;;;0.82;100.00
78890;BME280;68279;48.964;14.502;2024-03-07T05:50:59;97417.56;;;0.81;100.00
78890;BME280;68279;48.964;14.502;2024-03-07T05:53:25;97420.19;;;0.81;100.00
78890;BME280;68279;48.964;14.502;2024-03-07T05:55:51;97418.75;;;0.78;100.00
78890;BME280;68279;48.964;14.502;2024-03-07T05:58:17;97428.28;;;0.79;100.00
78890;BME280;68279;48.964;14.502;2024-03-07T06:00:45;97418.56;;;0.80;100.00
78890;BME280;68279;48.964;14.502;2024-03-07T06:03:20;97417.94;;;0.84;100.00
78890;BME280;68279;48.964;14.502;2024-03-07T06:05:46;97420.56;;;0.91;100.00
78890;BME280;68279;48.964;14.502;2024-03-07T06:08:17;97422.38;;;0.91;100.00
78890;BME280;68279;48.964;14.502;2024-03-07T06:10:44;97413.84;;;0.95;100.00
78890;BME280;68279;48.964;14.502;2024-03-07T06:13:11;97418.50;;;1.00;100.00
78890;BME280;68279;48.964;14.502;2024-03-07T06:15:38;97418.50;;;1.00;100.00
78890;BME280;68279;48.964;14.502;2024-03-07T06:18:06;97418.41;;;1.13;100.00
78890;BME280;68279;48.964;14.502;2024-03-07T06:20:34;97420.06;;;1.07;100.00
78890;BME280;68279;48.964;14.502;2024-03-07T06:23:01;97421.28;;;1.05;100.00
78890;BME280;68279;48.964;14.502;2024-03-07T06:25:36;97429.41;;;1.03;100.00
78890;BME280;68279;48.964;14.502;2024-03-07T06:28:18;97430.00;;;1.05;100.00
78890;BME280;68279;48.964;14.502;2024-03-07T06:30:46;97424.56;;;1.00;100.00
78890;BME280;68279;48.964;14.502;2024-03-07T06:33:13;97428.78;;;1.08;100.00
78890;BME280;68279;48.964;14.502;2024-03-07T06:35:40;97428.00;;;1.01;100.00
78890;BME280;68279;48.964;14.502;2024-03-07T06:38:08;97425.53;;;1.06;100.00
78890;BME280;68279;48.964;14.502;2024-03-07T06:40:37;97431.41;;;1.08;100.00
78890;BME280;68279;48.964;14.502;2024-03-07T06:43:03;97427.56;;;1.04;100.00
78890;BME280;68279;48.964;14.502;2024-03-07T06:45:30;97425.53;;;1.06;100.00
78890;BME280;68279;48.964;14.502;2024-03-07T06:47:56;97430.63;;;1.07;100.00
78890;BME280;68279;48.964;14.502;2024-03-07T06:50:22;97431.00;;;1.04;100.00
78890;BME280;68279;48.964;14.502;2024-03-07T06:52:48;97434.28;;;1.06;100.00
78890;BME280;68279;48.964;14.502;2024-03-07T06:55:15;97434.88;;;1.08;100.00
78890;BME280;68279;48.964;14.502;2024-03-07T06:57:43;97432.81;;;1.10;100.00
78890;BME280;68279;48.964;14.502;2024-03-07T07:00:10;97436.47;;;1.09;100.00
78890;BME280;68279;48.964;14.502;2024-03-07T07:02:40;97447.59;;;1.11;100.00
78890;BME280;68279;48.964;14.502;2024-03-07T07:05:07;97436.22;;;1.18;100.00
78890;BME280;68279;48.964;14.502;2024-03-07T07:07:40;97436.44;;;1.16;100.00
78890;BME280;68279;48.964;14.502;2024-03-07T07:10:08;97440.28;;;1.20;100.00
78890;BME280;68279;48.964;14.502;2024-03-07T07:12:37;97434.84;;;1.15;100.00
78890;BME280;68279;48.964;14.502;2024-03-07T07:15:03;97437.25;;;1.17;100.00
78890;BME280;68279;48.964;14.502;2024-03-07T07:17:29;97438.22;;;1.22;100.00
78890;BME280;68279;48.964;14.502;2024-03-07T07:19:57;97441.84;;;1.28;100.00
78890;BME280;68279;48.964;14.502;2024-03-07T07:22:23;97437.75;;;1.32;100.00
78890;BME280;68279;48.964;14.502;2024-03-07T07:24:48;97438.53;;;1.39;100.00
78890;BME280;68279;48.964;14.502;2024-03-07T07:27:15;97437.53;;;1.40;100.00
78890;BME280;68279;48.964;14.502;2024-03-07T07:29:40;97442.97;;;1.45;100.00
78890;BME280;68279;48.964;14.502;2024-03-07T07:32:07;97432.91;;;1.35;100.00
78890;BME280;68279;48.964;14.502;2024-03-07T07:34:33;97431.69;;;1.31;100.00
78890;BME280;68279;48.964;14.502;2024-03-07T07:36:59;97425.00;;;1.35;100.00
78890;BME280;68279;48.964;14.502;2024-03-07T07:39:24;97420.91;;;1.39;100.00
78890;BME280;68279;48.964;14.502;2024-03-07T07:41:50;97425.91;;;1.48;100.00
78890;BME280;68279;48.964;14.502;2024-03-07T07:44:16;97422.66;;;1.52;100.00
78890;BME280;68279;48.964;14.502;2024-03-07T07:46:42;97429.16;;;1.50;100.00
78890;BME280;68279;48.964;14.502;2024-03-07T07:49:09;97422.00;;;1.57;100.00
78890;BME280;68279;48.964;14.502;2024-03-07T07:51:34;97426.06;;;1.59;100.00
78890;BME280;68279;48.964;14.502;2024-03-07T07:54:00;97422.44;;;1.54;100.00
78890;BME280;68279;48.964;14.502;2024-03-07T07:56:25;97427.50;;;1.55;100.00
78890;BME280;68279;48.964;14.502;2024-03-07T07:58:54;97426.47;;;1.56;100.00
78890;BME280;68279;48.964;14.502;2024-03-07T08:01:20;97432.19;;;1.53;100.00
78890;BME280;68279;48.964;14.502;2024-03-07T08:03:46;97426.66;;;1.61;100.00
78890;BME280;68279;48.964;14.502;2024-03-07T08:06:12;97426.81;;;1.66;100.00
78890;BME280;68279;48.964;14.502;2024-03-07T08:08:37;97425.97;;;1.73;100.00
78890;BME280;68279;48.964;14.502;2024-03-07T08:11:03;97423.50;;;1.78;100.00
78890;BME280;68279;48.964;14.502;2024-03-07T08:13:29;97433.09;;;1.65;100.00
78890;BME280;68279;48.964;14.502;2024-03-07T08:15:54;97429.84;;;1.70;100.00
78890;BME280;68279;48.964;14.502;2024-03-07T08:18:20;97426.56;;;1.75;100.00
78890;BME280;68279;48.964;14.502;2024-03-07T08:20:46;97425.25;;;1.84;100.00
78890;BME280;68279;48.964;14.502;2024-03-07T08:23:12;97426.88;;;1.85;100.00
78890;BME280;68279;48.964;14.502;2024-03-07T08:25:40;97423.97;;;1.93;100.00
78890;BME280;68279;48.964;14.502;2024-03-07T08:28:06;97417.97;;;1.86;100.00
78890;BME280;68279;48.964;14.502;2024-03-07T08:30:32;97428.31;;;1.87;100.00
78890;BME280;68279;48.964;14.502;2024-03-07T08:32:58;97422.31;;;1.98;100.00
78890;BME280;68279;48.964;14.502;2024-03-07T08:35:27;97423.44;;;2.09;100.00
78890;BME280;68279;48.964;14.502;2024-03-07T08:37:55;97417.66;;;2.19;100.00
78890;BME280;68279;48.964;14.502;2024-03-07T08:40:25;97420.09;;;2.20;100.00
78890;BME280;68279;48.964;14.502;2024-03-07T08:42:52;97415.22;;;2.42;100.00
78890;BME280;68279;48.964;14.502;2024-03-07T08:45:19;97412.88;;;2.52;100.00
78890;BME280;68279;48.964;14.502;2024-03-07T08:47:46;97413.13;;;2.69;100.00
78890;BME280;68279;48.964;14.502;2024-03-07T08:50:13;97412.66;;;2.91;100.00
78890;BME280;68279;48.964;14.502;2024-03-07T08:52:40;97419.56;;;2.92;100.00
78890;BME280;68279;48.964;14.502;2024-03-07T08:55:07;97409.59;;;2.57;100.00
78890;BME280;68279;48.964;14.502;2024-03-07T08:57:36;97410.53;;;2.44;100.00
78890;BME280;68279;48.964;14.502;2024-03-07T09:00:03;97415.97;;;2.49;100.00
78890;BME280;68279;48.964;14.502;2024-03-07T09:02:34;97409.78;;;2.55;100.00
78890;BME280;68279;48.964;14.502;2024-03-07T09:05:01;97406.88;;;2.45;100.00
78890;BME280;68279;48.964;14.502;2024-03-07T09:07:27;97410.69;;;2.49;100.00
78890;BME280;68279;48.964;14.502;2024-03-07T09:09:55;97412.38;;;2.62;100.00
78890;BME280;68279;48.964;14.502;2024-03-07T09:12:21;97411.63;;;2.55;100.00
78890;BME280;68279;48.964;14.502;2024-03-07T09:14:47;97417.06;;;2.60;100.00
78890;BME280;68279;48.964;14.502;2024-03-07T09:17:12;97417.94;;;2.72;100.00
78890;BME280;68279;48.964;14.502;2024-03-07T09:19:38;97414.16;;;2.68;100.00
78890;BME280;68279;48.964;14.502;2024-03-07T09:22:04;97419.94;;;2.77;100.00
78890;BME280;68279;48.964;14.502;2024-03-07T09:24:30;97415.53;;;2.71;100.00
78890;BME280;68279;48.964;14.502;2024-03-07T09:26:56;97415.47;;;2.77;100.00
78890;BME280;68279;48.964;14.502;2024-03-07T09:29:22;97411.84;;;2.90;100.00
78890;BME280;68279;48.964;14.502;2024-03-07T09:31:51;97408.22;;;3.21;100.00
78890;BME280;68279;48.964;14.502;2024-03-07T09:34:18;97416.63;;;3.60;100.00
78890;BME280;68279;48.964;14.502;2024-03-07T09:36:44;97416.94;;;3.52;100.00
78890;BME280;68279;48.964;14.502;2024-03-07T09:39:11;97418.91;;;3.56;100.00
78890;BME280;68279;48.964;14.502;2024-03-07T09:41:40;97414.03;;;3.41;100.00
78890;BME280;68279;48.964;14.502;2024-03-07T09:44:09;97417.16;;;3.50;100.00
78890;BME280;68279;48.964;14.502;2024-03-07T09:46:38;97417.84;;;3.46;100.00
78890;BME280;68279;48.964;14.502;2024-03-07T09:49:04;97410.19;;;3.56;100.00
78890;BME280;68279;48.964;14.502;2024-03-07T09:51:31;97406.91;;;3.84;100.00
78890;BME280;68279;48.964;14.502;2024-03-07T09:53:58;97406.81;;;4.37;100.00
78890;BME280;68279;48.964;14.502;2024-03-07T09:56:25;97413.38;;;4.46;100.00
78890;BME280;68279;48.964;14.502;2024-03-07T09:58:55;97412.09;;;4.49;100.00
78890;BME280;68279;48.964;14.502;2024-03-07T10:01:27;97416.94;;;4.40;100.00
78890;BME280;68279;48.964;14.502;2024-03-07T10:03:58;97422.69;;;4.02;100.00
78890;BME280;68279;48.964;14.502;2024-03-07T10:06:23;97416.13;;;3.93;100.00
78890;BME280;68279;48.964;14.502;2024-03-07T10:08:50;97412.13;;;3.60;100.00
78890;BME280;68279;48.964;14.502;2024-03-07T10:11:16;97412.91;;;3.49;100.00
78890;BME280;68279;48.964;14.502;2024-03-07T10:13:42;97411.13;;;3.31;100.00
78890;BME280;68279;48.964;14.502;2024-03-07T10:16:07;97406.59;;;3.20;100.00
78890;BME280;68279;48.964;14.502;2024-03-07T10:18:42;97407.50;;;3.14;100.00
78890;BME280;68279;48.964;14.502;2024-03-07T10:21:08;97405.78;;;3.50;100.00
78890;BME280;68279;48.964;14.502;2024-03-07T10:23:33;97402.50;;;3.78;100.00
78890;BME280;68279;48.964;14.502;2024-03-07T10:26:00;97404.03;;;3.97;100.00
78890;BME280;68279;48.964;14.502;2024-03-07T10:28:28;97404.06;;;4.20;100.00
78890;BME280;68279;48.964;14.502;2024-03-07T10:30:54;97392.53;;;4.50;100.00
78890;BME280;68279;48.964;14.502;2024-03-07T10:33:20;97400.28;;;4.92;100.00
78890;BME280;68279;48.964;14.502;2024-03-07T10:35:47;97403.56;;;5.10;99.09
78890;BME280;68279;48.964;14.502;2024-03-07T10:38:14;97401.47;;;5.69;99.39
78890;BME280;68279;48.964;14.502;2024-03-07T10:40:40;97396.13;;;6.15;94.72
78890;BME280;68279;48.964;14.502;2024-03-07T10:43:11;97391.81;;;6.64;91.89
78890;BME280;68279;48.964;14.502;2024-03-07T10:45:44;97387.38;;;6.53;98.54
78890;BME280;68279;48.964;14.502;2024-03-07T10:48:12;97385.56;;;6.75;93.17
78890;BME280;68279;48.964;14.502;2024-03-07T10:53:46;97384.03;;;5.74;91.07
78890;BME280;68279;48.964;14.502;2024-03-07T10:56:33;97385.59;;;6.03;91.38
78890;BME280;68279;48.964;14.502;2024-03-07T11:01:39;97373.69;;;6.06;81.28
78890;BME280;68279;48.964;14.502;2024-03-07T11:04:09;97377.94;;;6.23;80.62
78890;BME280;68279;48.964;14.502;2024-03-07T11:06:38;97381.81;;;5.99;88.85
78890;BME280;68279;48.964;14.502;2024-03-07T11:09:06;97377.34;;;5.71;86.98
78890;BME280;68279;48.964;14.502;2024-03-07T11:11:39;97378.75;;;6.24;92.53
78890;BME280;68279;48.964;14.502;2024-03-07T11:14:10;97372.25;;;6.53;87.24
78890;BME280;68279;48.964;14.502;2024-03-07T11:16:39;97370.31;;;6.10;79.39
78890;BME280;68279;48.964;14.502;2024-03-07T11:19:25;97379.34;;;5.64;77.07
78890;BME280;68279;48.964;14.502;2024-03-07T11:21:56;97368.69;;;5.76;80.84
78890;BME280;68279;48.964;14.502;2024-03-07T11:24:31;97385.84;;;5.56;81.45
78890;BME280;68279;48.964;14.502;2024-03-07T11:27:03;97371.00;;;5.72;82.75
78890;BME280;68279;48.964;14.502;2024-03-07T11:29:39;97368.44;;;5.77;82.79
78890;BME280;68279;48.964;14.502;2024-03-07T11:32:13;97372.34;;;6.03;83.59
78890;BME280;68279;48.964;14.502;2024-03-07T11:34:40;97363.84;;;6.40;81.91
78890;BME280;68279;48.964;14.502;2024-03-07T11:37:19;97362.81;;;6.63;77.74
78890;BME280;68279;48.964;14.502;2024-03-07T11:39:49;97364.72;;;6.67;76.39
78890;BME280;68279;48.964;14.502;2024-03-07T11:42:29;97350.75;;;6.55;74.55
78890;BME280;68279;48.964;14.502;2024-03-07T11:45:02;97348.06;;;6.33;73.54
78890;BME280;68279;48.964;14.502;2024-03-07T11:47:38;97351.34;;;6.40;72.58
78890;BME280;68279;48.964;14.502;2024-03-07T11:50:05;97347.69;;;6.63;72.70
78890;BME280;68279;48.964;14.502;2024-03-07T11:52:36;97342.91;;;6.65;71.40
78890;BME280;68279;48.964;14.502;2024-03-07T11:55:04;97352.78;;;6.92;70.25
78890;BME280;68279;48.964;14.502;2024-03-07T11:57:30;97354.22;;;6.77;65.10
78890;BME280;68279;48.964;14.502;2024-03-07T11:59:59;97347.88;;;6.40;67.13
78890;BME280;68279;48.964;14.502;2024-03-07T12:02:37;97355.50;;;6.14;67.41
78890;BME280;68279;48.964;14.502;2024-03-07T12:05:04;97354.59;;;6.09;68.86
78890;BME280;68279;48.964;14.502;2024-03-07T12:07:31;97344.25;;;5.90;67.85
78890;BME280;68279;48.964;14.502;2024-03-07T12:09:57;97351.38;;;5.73;68.65
78890;BME280;68279;48.964;14.502;2024-03-07T12:12:23;97341.88;;;5.60;70.68
78890;BME280;68279;48.964;14.502;2024-03-07T12:14:53;97335.53;;;5.78;71.20
78890;BME280;68279;48.964;14.502;2024-03-07T12:17:20;97341.16;;;5.65;69.22
78890;BME280;68279;48.964;14.502;2024-03-07T12:19:46;97335.63;;;5.83;71.61
78890;BME280;68279;48.964;14.502;2024-03-07T12:22:12;97334.03;;;5.99;67.64
78890;BME280;68279;48.964;14.502;2024-03-07T12:24:42;97336.44;;;6.01;67.66
78890;BME280;68279;48.964;14.502;2024-03-07T12:27:09;97334.03;;;5.99;66.97
78890;BME280;68279;48.964;14.502;2024-03-07T12:29:36;97335.22;;;5.91;64.93
78890;BME280;68279;48.964;14.502;2024-03-07T12:32:05;97337.00;;;6.03;66.14
78890;BME280;68279;48.964;14.502;2024-03-07T12:34:34;97328.81;;;6.04;65.35
78890;BME280;68279;48.964;14.502;2024-03-07T12:37:03;97331.88;;;5.96;62.51
78890;BME280;68279;48.964;14.502;2024-03-07T12:39:32;97321.94;;;6.08;63.96
78890;BME280;68279;48.964;14.502;2024-03-07T12:42:04;97326.28;;;6.14;63.83
78890;BME280;68279;48.964;14.502;2024-03-07T12:44:46;97321.31;;;6.40;63.28
78890;BME280;68279;48.964;14.502;2024-03-07T12:47:16;97325.78;;;6.56;60.75
78890;BME280;68279;48.964;14.502;2024-03-07T12:49:45;97315.72;;;6.36;64.32
78890;BME280;68279;48.964;14.502;2024-03-07T12:52:12;97330.44;;;6.27;64.75
78890;BME280;68279;48.964;14.502;2024-03-07T12:54:41;97331.47;;;6.04;62.35
78890;BME280;68279;48.964;14.502;2024-03-07T12:57:08;97327.28;;;5.91;65.50
78890;BME280;68279;48.964;14.502;2024-03-07T12:59:40;97329.13;;;5.91;68.19